sensor_id;sensor_type;location;lat;lon;timestamp;P1;durP1;ratioP1;P2;durP2;ratioP2
66129;SDS011;52930;51.464;11.764;2023-05-07T00:01:28;16.88;;;8.48;;
66129;SDS011;52930;51.464;11.764;2023-05-07T00:03:53;19.73;;;8.90;;
66129;SDS011;52930;51.464;11.764;2023-05-07T00:06:18;25.67;;;10.80;;
66129;SDS011;52930;51.464;11.764;2023-05-07T00:08:44;21.10;;;9.70;;
66129;SDS011;52930;51.464;11.764;2023-05-07T00:11:09;22.30;;;10.07;;
66129;SDS011;52930;51.464;11.764;2023-05-07T00:13:35;26.97;;;11.03;;
66129;SDS011;52930;51.464;11.764;2023-05-07T00:16:03;21.90;;;10.30;;
66129;SDS011;52930;51.464;11.764;2023-05-07T00:18:29;22.95;;;10.20;;
66129;SDS011;52930;51.464;11.764;2023-05-07T00:20:55;24.07;;;10.03;;
66129;SDS011;52930;51.464;11.764;2023-05-07T00:23:21;21.65;;;9.90;;
66129;SDS011;52930;51.464;11.764;2023-05-07T00:25:46;19.43;;;9.07;;
66129;SDS011;52930;51.464;11.764;2023-05-07T00:28:11;18.00;;;8.03;;
66129;SDS011;52930;51.464;11.764;2023-05-07T00:30:37;18.40;;;8.60;;
66129;SDS011;52930;51.464;11.764;2023-05-07T00:33:02;14.70;;;7.10;;
66129;SDS011;52930;51.464;11.764;2023-05-07T00:35:28;15.17;;;7.20;;
66129;SDS011;52930;51.464;11.764;2023-05-07T00:37:53;13.77;;;6.70;;
66129;SDS011;52930;51.464;11.764;2023-05-07T00:40:19;13.80;;;6.67;;
66129;SDS011;52930;51.464;11.764;2023-05-07T00:42:44;17.20;;;8.00;;
66129;SDS011;52930;51.464;11.764;2023-05-07T00:45:12;16.02;;;7.30;;
66129;SDS011;52930;51.464;11.764;2023-05-07T00:47:38;17.10;;;7.75;;
66129;SDS011;52930;51.464;11.764;2023-05-07T00:50:04;17.38;;;7.28;;
66129;SDS011;52930;51.464;11.764;2023-05-07T00:52:30;17.40;;;7.32;;
66129;SDS011;52930;51.464;11.764;2023-05-07T00:54:55;18.73;;;8.68;;
66129;SDS011;52930;51.464;11.764;2023-05-07T00:57:21;18.90;;;8.60;;
66129;SDS011;52930;51.464;11.764;2023-05-07T00:59:47;21.50;;;8.52;;
66129;SDS011;52930;51.464;11.764;2023-05-07T01:02:13;19.00;;;8.40;;
66129;SDS011;52930;51.464;11.764;2023-05-07T01:04:39;18.65;;;7.38;;
66129;SDS011;52930;51.464;11.764;2023-05-07T01:07:04;16.57;;;7.67;;
66129;SDS011;52930;51.464;11.764;2023-05-07T01:09:30;19.43;;;7.60;;
66129;SDS011;52930;51.464;11.764;2023-05-07T01:11:56;18.73;;;7.18;;
66129;SDS011;52930;51.464;11.764;2023-05-07T01:14:22;18.70;;;8.05;;
66129;SDS011;52930;51.464;11.764;2023-05-07T01:16:48;15.80;;;6.90;;
66129;SDS011;52930;51.464;11.764;2023-05-07T01:19:16;16.02;;;6.72;;
66129;SDS011;52930;51.464;11.764;2023-05-07T01:21:46;18.55;;;6.97;;
66129;SDS011;52930;51.464;11.764;2023-05-07T01:24:13;14.32;;;6.63;;
66129;SDS011;52930;51.464;11.764;2023-05-07T01:26:39;18.20;;;7.40;;
66129;SDS011;52930;51.464;11.764;2023-05-07T01:29:04;14.85;;;6.78;;
66129;SDS011;52930;51.464;11.764;2023-05-07T01:31:30;14.90;;;6.50;;
66129;SDS011;52930;51.464;11.764;2023-05-07T01:33:55;14.30;;;6.53;;
66129;SDS011;52930;51.464;11.764;2023-05-07T01:36:22;15.40;;;7.00;;
66129;SDS011;52930;51.464;11.764;2023-05-07T01:38:50;15.13;;;6.63;;
66129;SDS011;52930;51.464;11.764;2023-05-07T01:41:16;16.17;;;7.00;;
66129;SDS011;52930;51.464;11.764;2023-05-07T01:43:42;18.87;;;7.67;;
66129;SDS011;52930;51.464;11.764;2023-05-07T01:46:07;15.75;;;7.22;;
66129;SDS011;52930;51.464;11.764;2023-05-07T01:48:34;15.52;;;7.53;;
66129;SDS011;52930;51.464;11.764;2023-05-07T01:51:00;17.85;;;8.10;;
66129;SDS011;52930;51.464;11.764;2023-05-07T01:53:27;14.90;;;7.17;;
66129;SDS011;52930;51.464;11.764;2023-05-07T01:55:53;17.25;;;7.40;;
66129;SDS011;52930;51.464;11.764;2023-05-07T01:58:18;17.73;;;7.97;;
66129;SDS011;52930;51.464;11.764;2023-05-07T02:00:43;17.55;;;7.40;;
66129;SDS011;52930;51.464;11.764;2023-05-07T02:03:09;16.25;;;7.05;;
66129;SDS011;52930;51.464;11.764;2023-05-07T02:05:34;16.23;;;7.33;;
66129;SDS011;52930;51.464;11.764;2023-05-07T02:07:59;15.77;;;7.57;;
66129;SDS011;52930;51.464;11.764;2023-05-07T02:10:25;14.03;;;6.67;;
66129;SDS011;52930;51.464;11.764;2023-05-07T02:12:50;14.35;;;6.63;;
66129;SDS011;52930;51.464;11.764;2023-05-07T02:15:16;14.80;;;7.10;;
66129;SDS011;52930;51.464;11.764;2023-05-07T02:20:27;13.65;;;6.75;;
66129;SDS011;52930;51.464;11.764;2023-05-07T02:22:52;13.77;;;7.03;;
66129;SDS011;52930;51.464;11.764;2023-05-07T02:25:18;17.63;;;7.03;;
66129;SDS011;52930;51.464;11.764;2023-05-07T02:27:43;14.37;;;6.43;;
66129;SDS011;52930;51.464;11.764;2023-05-07T02:30:08;14.23;;;6.60;;
66129;SDS011;52930;51.464;11.764;2023-05-07T02:32:34;12.88;;;6.55;;
66129;SDS011;52930;51.464;11.764;2023-05-07T02:34:59;15.83;;;7.17;;
66129;SDS011;52930;51.464;11.764;2023-05-07T02:37:25;14.77;;;6.80;;
66129;SDS011;52930;51.464;11.764;2023-05-07T02:39:50;14.00;;;6.23;;
66129;SDS011;52930;51.464;11.764;2023-05-07T02:42:15;14.83;;;6.23;;
66129;SDS011;52930;51.464;11.764;2023-05-07T02:44:41;14.77;;;7.07;;
66129;SDS011;52930;51.464;11.764;2023-05-07T02:47:06;14.30;;;6.67;;
66129;SDS011;52930;51.464;11.764;2023-05-07T02:49:33;15.05;;;7.07;;
66129;SDS011;52930;51.464;11.764;2023-05-07T02:51:58;15.40;;;6.80;;
66129;SDS011;52930;51.464;11.764;2023-05-07T02:54:24;13.88;;;6.60;;
66129;SDS011;52930;51.464;11.764;2023-05-07T02:56:50;16.63;;;6.67;;
66129;SDS011;52930;51.464;11.764;2023-05-07T02:59:15;15.07;;;7.00;;
66129;SDS011;52930;51.464;11.764;2023-05-07T03:01:40;16.57;;;6.57;;
66129;SDS011;52930;51.464;11.764;2023-05-07T03:04:08;16.90;;;6.82;;
66129;SDS011;52930;51.464;11.764;2023-05-07T03:06:34;13.90;;;6.60;;
66129;SDS011;52930;51.464;11.764;2023-05-07T03:09:00;14.63;;;6.67;;
66129;SDS011;52930;51.464;11.764;2023-05-07T03:11:25;15.93;;;6.33;;
66129;SDS011;52930;51.464;11.764;2023-05-07T03:13:50;14.00;;;6.30;;
66129;SDS011;52930;51.464;11.764;2023-05-07T03:16:16;14.55;;;5.65;;
66129;SDS011;52930;51.464;11.764;2023-05-07T03:18:41;14.20;;;6.82;;
66129;SDS011;52930;51.464;11.764;2023-05-07T03:21:06;13.87;;;6.27;;
66129;SDS011;52930;51.464;11.764;2023-05-07T03:23:31;14.47;;;6.57;;
66129;SDS011;52930;51.464;11.764;2023-05-07T03:25:57;12.80;;;6.33;;
66129;SDS011;52930;51.464;11.764;2023-05-07T03:28:22;13.33;;;6.23;;
66129;SDS011;52930;51.464;11.764;2023-05-07T03:30:47;14.73;;;6.90;;
66129;SDS011;52930;51.464;11.764;2023-05-07T03:33:13;13.57;;;6.30;;
66129;SDS011;52930;51.464;11.764;2023-05-07T03:35:38;14.63;;;6.80;;
66129;SDS011;52930;51.464;11.764;2023-05-07T03:38:04;16.30;;;7.45;;
66129;SDS011;52930;51.464;11.764;2023-05-07T03:40:29;17.70;;;8.38;;
66129;SDS011;52930;51.464;11.764;2023-05-07T03:42:55;17.77;;;8.33;;
66129;SDS011;52930;51.464;11.764;2023-05-07T03:45:20;17.17;;;7.90;;
66129;SDS011;52930;51.464;11.764;2023-05-07T03:47:45;19.20;;;8.77;;
66129;SDS011;52930;51.464;11.764;2023-05-07T03:50:11;19.13;;;8.20;;
66129;SDS011;52930;51.464;11.764;2023-05-07T03:52:36;16.92;;;7.70;;
66129;SDS011;52930;51.464;11.764;2023-05-07T03:55:01;17.03;;;8.37;;
66129;SDS011;52930;51.464;11.764;2023-05-07T03:57:29;15.00;;;7.95;;
66129;SDS011;52930;51.464;11.764;2023-05-07T03:59:54;16.93;;;8.33;;
66129;SDS011;52930;51.464;11.764;2023-05-07T04:02:19;17.63;;;7.97;;
66129;SDS011;52930;51.464;11.764;2023-05-07T04:04:45;18.77;;;9.03;;
66129;SDS011;52930;51.464;11.764;2023-05-07T04:07:10;19.07;;;8.87;;
66129;SDS011;52930;51.464;11.764;2023-05-07T04:09:36;18.13;;;9.02;;
66129;SDS011;52930;51.464;11.764;2023-05-07T04:12:01;17.77;;;8.97;;
66129;SDS011;52930;51.464;11.764;2023-05-07T04:14:26;19.50;;;9.87;;
66129;SDS011;52930;51.464;11.764;2023-05-07T04:16:52;17.20;;;8.80;;
66129;SDS011;52930;51.464;11.764;2023-05-07T04:19:17;19.70;;;9.83;;
66129;SDS011;52930;51.464;11.764;2023-05-07T04:21:42;21.10;;;9.23;;
66129;SDS011;52930;51.464;11.764;2023-05-07T04:24:08;20.27;;;9.50;;
66129;SDS011;52930;51.464;11.764;2023-05-07T04:26:33;20.30;;;9.50;;
66129;SDS011;52930;51.464;11.764;2023-05-07T04:28:59;19.75;;;9.65;;
66129;SDS011;52930;51.464;11.764;2023-05-07T04:31:24;21.23;;;10.73;;
66129;SDS011;52930;51.464;11.764;2023-05-07T04:33:50;21.27;;;9.60;;
66129;SDS011;52930;51.464;11.764;2023-05-07T04:36:16;24.15;;;10.10;;
66129;SDS011;52930;51.464;11.764;2023-05-07T04:38:42;22.00;;;10.20;;
66129;SDS011;52930;51.464;11.764;2023-05-07T04:41:08;21.60;;;10.77;;
66129;SDS011;52930;51.464;11.764;2023-05-07T04:43:34;20.67;;;9.83;;
66129;SDS011;52930;51.464;11.764;2023-05-07T04:45:59;20.13;;;10.07;;
66129;SDS011;52930;51.464;11.764;2023-05-07T04:48:24;20.48;;;10.30;;
66129;SDS011;52930;51.464;11.764;2023-05-07T04:50:51;20.23;;;10.07;;
66129;SDS011;52930;51.464;11.764;2023-05-07T04:53:17;22.13;;;9.90;;
66129;SDS011;52930;51.464;11.764;2023-05-07T04:55:43;17.45;;;8.90;;
66129;SDS011;52930;51.464;11.764;2023-05-07T04:58:08;22.77;;;10.33;;
66129;SDS011;52930;51.464;11.764;2023-05-07T05:00:34;19.55;;;9.13;;
66129;SDS011;52930;51.464;11.764;2023-05-07T05:02:59;21.00;;;9.97;;
66129;SDS011;52930;51.464;11.764;2023-05-07T05:05:24;20.43;;;9.30;;
66129;SDS011;52930;51.464;11.764;2023-05-07T05:07:50;20.70;;;10.13;;
66129;SDS011;52930;51.464;11.764;2023-05-07T05:10:16;19.75;;;10.00;;
66129;SDS011;52930;51.464;11.764;2023-05-07T05:12:42;19.52;;;10.15;;
66129;SDS011;52930;51.464;11.764;2023-05-07T05:15:08;21.67;;;10.18;;
66129;SDS011;52930;51.464;11.764;2023-05-07T05:17:34;22.55;;;10.98;;
66129;SDS011;52930;51.464;11.764;2023-05-07T05:20:00;21.05;;;10.57;;
66129;SDS011;52930;51.464;11.764;2023-05-07T05:22:26;21.90;;;10.27;;
66129;SDS011;52930;51.464;11.764;2023-05-07T05:24:51;21.15;;;10.65;;
66129;SDS011;52930;51.464;11.764;2023-05-07T05:27:16;24.83;;;10.57;;
66129;SDS011;52930;51.464;11.764;2023-05-07T05:29:42;21.30;;;9.67;;
66129;SDS011;52930;51.464;11.764;2023-05-07T05:32:07;22.83;;;10.83;;
66129;SDS011;52930;51.464;11.764;2023-05-07T05:34:32;21.57;;;10.77;;
66129;SDS011;52930;51.464;11.764;2023-05-07T05:36:58;23.40;;;11.00;;
66129;SDS011;52930;51.464;11.764;2023-05-07T05:39:24;23.17;;;10.18;;
66129;SDS011;52930;51.464;11.764;2023-05-07T05:41:49;22.20;;;10.60;;
66129;SDS011;52930;51.464;11.764;2023-05-07T05:44:15;22.25;;;10.32;;
66129;SDS011;52930;51.464;11.764;2023-05-07T05:46:40;21.08;;;9.65;;
66129;SDS011;52930;51.464;11.764;2023-05-07T05:49:06;22.83;;;11.07;;
66129;SDS011;52930;51.464;11.764;2023-05-07T05:51:32;25.92;;;11.60;;
66129;SDS011;52930;51.464;11.764;2023-05-07T05:53:57;22.63;;;10.67;;
66129;SDS011;52930;51.464;11.764;2023-05-07T05:56:22;22.37;;;10.17;;
66129;SDS011;52930;51.464;11.764;2023-05-07T05:58:48;20.03;;;10.10;;
66129;SDS011;52930;51.464;11.764;2023-05-07T06:01:13;21.80;;;11.23;;
66129;SDS011;52930;51.464;11.764;2023-05-07T06:03:38;22.90;;;11.97;;
66129;SDS011;52930;51.464;11.764;2023-05-07T06:06:04;26.20;;;11.80;;
66129;SDS011;52930;51.464;11.764;2023-05-07T06:08:29;21.45;;;10.27;;
66129;SDS011;52930;51.464;11.764;2023-05-07T06:10:55;21.42;;;10.90;;
66129;SDS011;52930;51.464;11.764;2023-05-07T06:13:20;22.53;;;10.67;;
66129;SDS011;52930;51.464;11.764;2023-05-07T06:15:45;22.53;;;10.47;;
66129;SDS011;52930;51.464;11.764;2023-05-07T06:18:11;19.67;;;9.90;;
66129;SDS011;52930;51.464;11.764;2023-05-07T06:20:36;20.08;;;10.18;;
66129;SDS011;52930;51.464;11.764;2023-05-07T06:23:02;19.83;;;10.05;;
66129;SDS011;52930;51.464;11.764;2023-05-07T06:25:27;19.80;;;9.70;;
66129;SDS011;52930;51.464;11.764;2023-05-07T06:27:52;18.40;;;9.57;;
66129;SDS011;52930;51.464;11.764;2023-05-07T06:30:17;21.70;;;10.43;;
66129;SDS011;52930;51.464;11.764;2023-05-07T06:32:43;22.77;;;11.03;;
66129;SDS011;52930;51.464;11.764;2023-05-07T06:35:08;24.70;;;11.63;;
66129;SDS011;52930;51.464;11.764;2023-05-07T06:37:33;23.07;;;11.13;;
66129;SDS011;52930;51.464;11.764;2023-05-07T06:39:59;22.23;;;10.33;;
66129;SDS011;52930;51.464;11.764;2023-05-07T06:42:24;23.83;;;11.30;;
66129;SDS011;52930;51.464;11.764;2023-05-07T06:44:50;20.83;;;10.30;;
66129;SDS011;52930;51.464;11.764;2023-05-07T06:47:15;19.57;;;10.33;;
66129;SDS011;52930;51.464;11.764;2023-05-07T06:49:40;22.27;;;11.03;;
66129;SDS011;52930;51.464;11.764;2023-05-07T06:52:06;21.87;;;10.70;;
66129;SDS011;52930;51.464;11.764;2023-05-07T06:54:31;21.87;;;10.87;;
66129;SDS011;52930;51.464;11.764;2023-05-07T06:56:56;20.40;;;10.27;;
66129;SDS011;52930;51.464;11.764;2023-05-07T06:59:23;19.97;;;9.97;;
66129;SDS011;52930;51.464;11.764;2023-05-07T07:01:48;19.20;;;9.90;;
66129;SDS011;52930;51.464;11.764;2023-05-07T07:04:14;19.70;;;9.60;;
66129;SDS011;52930;51.464;11.764;2023-05-07T07:06:39;18.70;;;9.90;;
66129;SDS011;52930;51.464;11.764;2023-05-07T07:09:05;16.20;;;8.50;;
66129;SDS011;52930;51.464;11.764;2023-05-07T07:11:30;16.13;;;8.60;;
66129;SDS011;52930;51.464;11.764;2023-05-07T07:13:55;17.73;;;8.07;;
66129;SDS011;52930;51.464;11.764;2023-05-07T07:16:21;14.93;;;7.47;;
66129;SDS011;52930;51.464;11.764;2023-05-07T07:18:46;15.40;;;7.40;;
66129;SDS011;52930;51.464;11.764;2023-05-07T07:21:12;15.10;;;7.60;;
66129;SDS011;52930;51.464;11.764;2023-05-07T07:23:37;14.93;;;7.70;;
66129;SDS011;52930;51.464;11.764;2023-05-07T07:26:02;14.88;;;7.80;;
66129;SDS011;52930;51.464;11.764;2023-05-07T07:28:28;15.33;;;7.67;;
66129;SDS011;52930;51.464;11.764;2023-05-07T07:30:53;14.37;;;7.30;;
66129;SDS011;52930;51.464;11.764;2023-05-07T07:33:18;15.77;;;7.87;;
66129;SDS011;52930;51.464;11.764;2023-05-07T07:35:44;13.13;;;6.77;;
66129;SDS011;52930;51.464;11.764;2023-05-07T07:38:09;14.37;;;7.23;;
66129;SDS011;52930;51.464;11.764;2023-05-07T07:40:35;14.68;;;6.85;;
66129;SDS011;52930;51.464;11.764;2023-05-07T07:43:00;12.47;;;6.03;;
66129;SDS011;52930;51.464;11.764;2023-05-07T07:45:26;12.30;;;6.30;;
66129;SDS011;52930;51.464;11.764;2023-05-07T07:47:51;13.98;;;6.10;;
66129;SDS011;52930;51.464;11.764;2023-05-07T07:50:17;12.43;;;6.07;;
66129;SDS011;52930;51.464;11.764;2023-05-07T07:52:43;13.67;;;6.83;;
66129;SDS011;52930;51.464;11.764;2023-05-07T07:55:09;13.73;;;6.35;;
66129;SDS011;52930;51.464;11.764;2023-05-07T07:57:34;14.50;;;6.83;;
66129;SDS011;52930;51.464;11.764;2023-05-07T07:59:59;13.63;;;6.73;;
66129;SDS011;52930;51.464;11.764;2023-05-07T08:02:25;15.65;;;7.60;;
66129;SDS011;52930;51.464;11.764;2023-05-07T08:04:51;14.57;;;7.20;;
66129;SDS011;52930;51.464;11.764;2023-05-07T08:07:16;14.83;;;7.57;;
66129;SDS011;52930;51.464;11.764;2023-05-07T08:09:43;14.90;;;7.57;;
66129;SDS011;52930;51.464;11.764;2023-05-07T08:12:09;16.57;;;8.50;;
66129;SDS011;52930;51.464;11.764;2023-05-07T08:14:34;17.47;;;8.73;;
66129;SDS011;52930;51.464;11.764;2023-05-07T08:16:59;16.57;;;8.17;;
66129;SDS011;52930;51.464;11.764;2023-05-07T08:19:25;18.88;;;8.27;;
66129;SDS011;52930;51.464;11.764;2023-05-07T08:21:51;19.33;;;8.90;;
66129;SDS011;52930;51.464;11.764;2023-05-07T08:24:16;16.90;;;9.10;;
66129;SDS011;52930;51.464;11.764;2023-05-07T08:26:43;18.88;;;9.18;;
66129;SDS011;52930;51.464;11.764;2023-05-07T08:29:08;17.55;;;9.00;;
66129;SDS011;52930;51.464;11.764;2023-05-07T08:31:34;18.43;;;9.63;;
66129;SDS011;52930;51.464;11.764;2023-05-07T08:33:59;19.87;;;9.93;;
66129;SDS011;52930;51.464;11.764;2023-05-07T08:36:25;18.52;;;9.55;;
66129;SDS011;52930;51.464;11.764;2023-05-07T08:38:51;16.80;;;9.17;;
66129;SDS011;52930;51.464;11.764;2023-05-07T08:41:16;15.80;;;7.75;;
66129;SDS011;52930;51.464;11.764;2023-05-07T08:43:42;15.33;;;8.30;;
66129;SDS011;52930;51.464;11.764;2023-05-07T08:46:19;19.05;;;8.98;;
66129;SDS011;52930;51.464;11.764;2023-05-07T08:48:47;15.00;;;7.55;;
66129;SDS011;52930;51.464;11.764;2023-05-07T08:51:14;12.65;;;6.72;;
66129;SDS011;52930;51.464;11.764;2023-05-07T08:53:41;12.98;;;6.45;;
66129;SDS011;52930;51.464;11.764;2023-05-07T08:56:10;11.93;;;6.10;;
66129;SDS011;52930;51.464;11.764;2023-05-07T08:58:36;12.88;;;6.40;;
66129;SDS011;52930;51.464;11.764;2023-05-07T09:01:07;13.43;;;6.88;;
66129;SDS011;52930;51.464;11.764;2023-05-07T09:03:33;13.75;;;6.72;;
66129;SDS011;52930;51.464;11.764;2023-05-07T09:05:59;15.43;;;6.87;;
66129;SDS011;52930;51.464;11.764;2023-05-07T09:08:25;13.05;;;7.15;;
66129;SDS011;52930;51.464;11.764;2023-05-07T09:10:51;11.50;;;6.50;;
66129;SDS011;52930;51.464;11.764;2023-05-07T09:13:17;10.55;;;5.68;;
66129;SDS011;52930;51.464;11.764;2023-05-07T09:15:43;11.25;;;5.97;;
66129;SDS011;52930;51.464;11.764;2023-05-07T09:18:08;11.63;;;6.67;;
66129;SDS011;52930;51.464;11.764;2023-05-07T09:20:33;12.17;;;7.07;;
66129;SDS011;52930;51.464;11.764;2023-05-07T09:23:01;11.75;;;6.00;;
66129;SDS011;52930;51.464;11.764;2023-05-07T09:25:30;10.70;;;6.23;;
66129;SDS011;52930;51.464;11.764;2023-05-07T09:27:57;9.75;;;5.43;;
66129;SDS011;52930;51.464;11.764;2023-05-07T09:30:27;10.52;;;5.93;;
66129;SDS011;52930;51.464;11.764;2023-05-07T09:32:53;11.80;;;6.03;;
66129;SDS011;52930;51.464;11.764;2023-05-07T09:35:19;10.57;;;6.30;;
66129;SDS011;52930;51.464;11.764;2023-05-07T09:37:46;10.88;;;6.22;;
66129;SDS011;52930;51.464;11.764;2023-05-07T09:40:25;10.55;;;6.45;;
66129;SDS011;52930;51.464;11.764;2023-05-07T09:42:52;13.65;;;7.03;;
66129;SDS011;52930;51.464;11.764;2023-05-07T09:45:28;10.38;;;5.65;;
66129;SDS011;52930;51.464;11.764;2023-05-07T09:47:55;9.82;;;5.63;;
66129;SDS011;52930;51.464;11.764;2023-05-07T09:50:22;10.70;;;6.28;;
66129;SDS011;52930;51.464;11.764;2023-05-07T09:52:52;9.95;;;5.25;;
66129;SDS011;52930;51.464;11.764;2023-05-07T09:55:20;9.30;;;5.40;;
66129;SDS011;52930;51.464;11.764;2023-05-07T09:57:45;11.90;;;5.73;;
66129;SDS011;52930;51.464;11.764;2023-05-07T10:00:11;10.33;;;5.83;;
66129;SDS011;52930;51.464;11.764;2023-05-07T10:02:37;9.95;;;5.18;;
66129;SDS011;52930;51.464;11.764;2023-05-07T10:05:11;11.07;;;5.55;;
66129;SDS011;52930;51.464;11.764;2023-05-07T10:07:37;10.45;;;6.15;;
66129;SDS011;52930;51.464;11.764;2023-05-07T10:10:02;10.30;;;5.87;;
66129;SDS011;52930;51.464;11.764;2023-05-07T10:12:28;10.33;;;5.20;;
66129;SDS011;52930;51.464;11.764;2023-05-07T10:14:54;10.82;;;5.53;;
66129;SDS011;52930;51.464;11.764;2023-05-07T10:17:20;10.88;;;5.45;;
66129;SDS011;52930;51.464;11.764;2023-05-07T10:19:47;9.88;;;5.65;;
66129;SDS011;52930;51.464;11.764;2023-05-07T10:22:13;11.37;;;6.33;;
66129;SDS011;52930;51.464;11.764;2023-05-07T10:24:39;13.45;;;6.47;;
66129;SDS011;52930;51.464;11.764;2023-05-07T10:27:05;11.23;;;5.83;;
66129;SDS011;52930;51.464;11.764;2023-05-07T10:32:30;11.23;;;5.82;;
66129;SDS011;52930;51.464;11.764;2023-05-07T10:34:58;10.27;;;5.90;;
66129;SDS011;52930;51.464;11.764;2023-05-07T10:37:27;11.02;;;6.07;;
66129;SDS011;52930;51.464;11.764;2023-05-07T10:39:53;13.10;;;7.22;;
66129;SDS011;52930;51.464;11.764;2023-05-07T10:42:19;13.00;;;7.03;;
66129;SDS011;52930;51.464;11.764;2023-05-07T10:44:45;13.63;;;6.35;;
66129;SDS011;52930;51.464;11.764;2023-05-07T10:47:11;13.67;;;7.67;;
66129;SDS011;52930;51.464;11.764;2023-05-07T10:54:38;15.03;;;7.07;;
66129;SDS011;52930;51.464;11.764;2023-05-07T10:57:32;14.18;;;7.25;;
66129;SDS011;52930;51.464;11.764;2023-05-07T10:59:57;13.33;;;6.87;;
66129;SDS011;52930;51.464;11.764;2023-05-07T11:02:23;12.63;;;6.75;;
66129;SDS011;52930;51.464;11.764;2023-05-07T11:05:18;13.20;;;7.90;;
66129;SDS011;52930;51.464;11.764;2023-05-07T11:07:55;12.07;;;6.22;;
66129;SDS011;52930;51.464;11.764;2023-05-07T11:13:40;12.30;;;6.88;;
66129;SDS011;52930;51.464;11.764;2023-05-07T11:16:17;10.90;;;6.28;;
66129;SDS011;52930;51.464;11.764;2023-05-07T11:18:47;14.07;;;7.28;;
66129;SDS011;52930;51.464;11.764;2023-05-07T11:21:25;13.50;;;7.85;;
66129;SDS011;52930;51.464;11.764;2023-05-07T11:24:03;13.05;;;7.35;;
66129;SDS011;52930;51.464;11.764;2023-05-07T11:26:30;13.05;;;7.32;;
66129;SDS011;52930;51.464;11.764;2023-05-07T11:29:10;14.20;;;7.47;;
66129;SDS011;52930;51.464;11.764;2023-05-07T11:31:36;14.10;;;7.43;;
66129;SDS011;52930;51.464;11.764;2023-05-07T11:34:02;13.43;;;7.10;;
66129;SDS011;52930;51.464;11.764;2023-05-07T11:36:31;13.70;;;7.32;;
66129;SDS011;52930;51.464;11.764;2023-05-07T11:38:57;12.57;;;7.47;;
66129;SDS011;52930;51.464;11.764;2023-05-07T11:41:23;13.47;;;7.30;;
66129;SDS011;52930;51.464;11.764;2023-05-07T11:43:58;13.45;;;6.78;;
66129;SDS011;52930;51.464;11.764;2023-05-07T11:46:24;13.52;;;7.43;;
66129;SDS011;52930;51.464;11.764;2023-05-07T11:48:51;13.37;;;7.47;;
66129;SDS011;52930;51.464;11.764;2023-05-07T11:51:18;11.80;;;6.43;;
66129;SDS011;52930;51.464;11.764;2023-05-07T11:53:51;12.15;;;6.70;;
66129;SDS011;52930;51.464;11.764;2023-05-07T11:56:17;10.63;;;5.83;;
66129;SDS011;52930;51.464;11.764;2023-05-07T11:58:43;11.05;;;5.40;;
66129;SDS011;52930;51.464;11.764;2023-05-07T12:01:10;9.45;;;5.45;;
66129;SDS011;52930;51.464;11.764;2023-05-07T12:03:36;8.95;;;4.80;;
66129;SDS011;52930;51.464;11.764;2023-05-07T12:06:02;8.20;;;4.53;;
66129;SDS011;52930;51.464;11.764;2023-05-07T12:08:30;9.13;;;5.25;;
66129;SDS011;52930;51.464;11.764;2023-05-07T12:10:55;10.60;;;5.77;;
66129;SDS011;52930;51.464;11.764;2023-05-07T12:13:21;12.43;;;6.40;;
66129;SDS011;52930;51.464;11.764;2023-05-07T12:15:51;10.18;;;6.18;;
66129;SDS011;52930;51.464;11.764;2023-05-07T12:18:17;10.32;;;6.38;;
66129;SDS011;52930;51.464;11.764;2023-05-07T12:20:42;11.00;;;6.30;;
66129;SDS011;52930;51.464;11.764;2023-05-07T12:23:08;11.13;;;6.63;;
66129;SDS011;52930;51.464;11.764;2023-05-07T12:25:37;12.13;;;6.77;;
66129;SDS011;52930;51.464;11.764;2023-05-07T12:28:03;11.15;;;5.78;;
66129;SDS011;52930;51.464;11.764;2023-05-07T12:30:32;10.85;;;5.93;;
66129;SDS011;52930;51.464;11.764;2023-05-07T12:33:02;10.40;;;5.90;;
66129;SDS011;52930;51.464;11.764;2023-05-07T12:35:28;11.55;;;6.35;;
66129;SDS011;52930;51.464;11.764;2023-05-07T12:37:57;12.25;;;6.47;;
66129;SDS011;52930;51.464;11.764;2023-05-07T12:40:24;10.95;;;6.72;;
66129;SDS011;52930;51.464;11.764;2023-05-07T12:43:00;11.48;;;6.95;;
66129;SDS011;52930;51.464;11.764;2023-05-07T12:45:25;11.50;;;6.57;;
66129;SDS011;52930;51.464;11.764;2023-05-07T12:47:51;11.35;;;6.15;;
66129;SDS011;52930;51.464;11.764;2023-05-07T12:50:16;10.73;;;5.83;;
66129;SDS011;52930;51.464;11.764;2023-05-07T12:52:42;10.87;;;6.23;;
66129;SDS011;52930;51.464;11.764;2023-05-07T12:55:12;11.18;;;5.88;;
66129;SDS011;52930;51.464;11.764;2023-05-07T12:57:39;9.57;;;5.60;;
66129;SDS011;52930;51.464;11.764;2023-05-07T13:00:08;9.23;;;5.00;;
66129;SDS011;52930;51.464;11.764;2023-05-07T13:02:37;11.98;;;5.53;;
66129;SDS011;52930;51.464;11.764;2023-05-07T13:05:03;10.35;;;5.07;;
66129;SDS011;52930;51.464;11.764;2023-05-07T13:07:28;9.20;;;4.60;;
66129;SDS011;52930;51.464;11.764;2023-05-07T13:09:54;8.93;;;4.60;;
66129;SDS011;52930;51.464;11.764;2023-05-07T13:12:19;9.65;;;4.68;;
66129;SDS011;52930;51.464;11.764;2023-05-07T13:14:44;11.35;;;5.65;;
66129;SDS011;52930;51.464;11.764;2023-05-07T13:17:10;11.13;;;5.93;;
66129;SDS011;52930;51.464;11.764;2023-05-07T13:19:35;11.23;;;6.47;;
66129;SDS011;52930;51.464;11.764;2023-05-07T13:22:02;11.07;;;6.43;;
66129;SDS011;52930;51.464;11.764;2023-05-07T13:24:27;13.97;;;7.37;;
66129;SDS011;52930;51.464;11.764;2023-05-07T13:26:53;11.07;;;6.13;;
66129;SDS011;52930;51.464;11.764;2023-05-07T13:29:18;12.07;;;6.67;;
66129;SDS011;52930;51.464;11.764;2023-05-07T13:31:43;10.13;;;5.97;;
66129;SDS011;52930;51.464;11.764;2023-05-07T13:34:09;10.30;;;5.80;;
66129;SDS011;52930;51.464;11.764;2023-05-07T13:36:35;11.65;;;5.93;;
66129;SDS011;52930;51.464;11.764;2023-05-07T13:39:02;12.40;;;6.30;;
66129;SDS011;52930;51.464;11.764;2023-05-07T13:41:28;11.00;;;6.10;;
66129;SDS011;52930;51.464;11.764;2023-05-07T13:43:54;11.30;;;6.17;;
66129;SDS011;52930;51.464;11.764;2023-05-07T13:46:19;12.03;;;6.70;;
66129;SDS011;52930;51.464;11.764;2023-05-07T13:48:44;9.73;;;5.77;;
66129;SDS011;52930;51.464;11.764;2023-05-07T13:51:10;12.43;;;6.53;;
66129;SDS011;52930;51.464;11.764;2023-05-07T13:53:35;10.75;;;6.40;;
66129;SDS011;52930;51.464;11.764;2023-05-07T13:56:01;10.70;;;5.90;;
66129;SDS011;52930;51.464;11.764;2023-05-07T13:58:29;9.45;;;5.18;;
66129;SDS011;52930;51.464;11.764;2023-05-07T14:00:54;9.50;;;5.17;;
66129;SDS011;52930;51.464;11.764;2023-05-07T14:03:20;8.50;;;4.60;;
66129;SDS011;52930;51.464;11.764;2023-05-07T14:05:45;9.27;;;4.70;;
66129;SDS011;52930;51.464;11.764;2023-05-07T14:08:10;12.17;;;5.17;;
66129;SDS011;52930;51.464;11.764;2023-05-07T14:10:37;9.35;;;5.05;;
66129;SDS011;52930;51.464;11.764;2023-05-07T14:13:03;7.80;;;4.23;;
66129;SDS011;52930;51.464;11.764;2023-05-07T14:15:28;8.37;;;4.07;;
66129;SDS011;52930;51.464;11.764;2023-05-07T14:17:53;8.27;;;4.90;;
66129;SDS011;52930;51.464;11.764;2023-05-07T14:20:20;10.70;;;4.50;;
66129;SDS011;52930;51.464;11.764;2023-05-07T14:22:45;7.82;;;4.00;;
66129;SDS011;52930;51.464;11.764;2023-05-07T14:25:10;8.20;;;4.20;;
66129;SDS011;52930;51.464;11.764;2023-05-07T14:27:36;11.23;;;4.60;;
66129;SDS011;52930;51.464;11.764;2023-05-07T14:30:01;8.43;;;4.47;;